createdAt,value
2018-12-12T00:10:07.444Z,100201.84
2018-12-12T00:14:52.711Z,100203.17
2018-12-12T00:19:38.762Z,100206.06
2018-12-12T00:24:24.148Z,100208.64
2018-12-12T00:29:09.344Z,100199.45
2018-12-12T00:33:53.810Z,100193.90
2018-12-12T00:38:39.723Z,100200.45
2018-12-12T00:43:26.124Z,100203.60
2018-12-12T00:48:11.424Z,100201.33
2018-12-12T00:52:59.708Z,100196.19
2018-12-12T00:57:45.328Z,100200.33
2018-12-12T01:02:33.614Z,100198.61
2018-12-12T01:07:18.741Z,100201.30
2018-12-12T01:12:08.998Z,100199.23
2018-12-12T01:16:54.551Z,100195.07
2018-12-12T01:21:38.905Z,100192.36
2018-12-12T01:26:24.108Z,100180.22
2018-12-12T01:31:09.281Z,100176.91
2018-12-12T01:35:53.599Z,100181.97
2018-12-12T01:40:38.925Z,100185.89
2018-12-12T01:45:24.147Z,100194.56
2018-12-12T01:50:08.356Z,100191.53
2018-12-12T01:54:53.437Z,100189.63
2018-12-12T01:59:38.893Z,100187.19
2018-12-12T02:04:24.172Z,100172.73
2018-12-12T02:09:09.381Z,100164.88
2018-12-12T02:13:56.184Z,100154.22
2018-12-12T02:18:44.879Z,100148.28
2018-12-12T02:23:30.722Z,100150.92
2018-12-12T02:28:16.241Z,100145.02
2018-12-12T02:33:00.728Z,100148.24
2018-12-12T02:37:46.288Z,100153.02
2018-12-12T02:42:32.006Z,100142.68
2018-12-12T02:47:16.061Z,100169.92
2018-12-12T02:52:01.288Z,100180.50
2018-12-12T02:56:46.500Z,100179.59
2018-12-12T03:01:31.826Z,100184.03
2018-12-12T03:06:17.046Z,100182.91
2018-12-12T03:11:02.765Z,100190.53
2018-12-12T03:15:47.860Z,100186.55
2018-12-12T03:20:33.073Z,100183.98
2018-12-12T03:25:18.831Z,100184.21
2018-12-12T03:30:05.170Z,100186.67
2018-12-12T03:34:49.445Z,100187.25
2018-12-12T03:39:36.158Z,100195.80
2018-12-12T03:44:20.308Z,100202.28
2018-12-12T03:49:05.584Z,100213.78
2018-12-12T03:53:50.881Z,100231.97
2018-12-12T03:58:35.169Z,100231.16
2018-12-12T04:03:21.716Z,100235.66
2018-12-12T04:08:06.657Z,100238.70
2018-12-12T04:12:50.801Z,100243.02
2018-12-12T04:17:35.490Z,100247.28
2018-12-12T04:22:21.852Z,100249.95
2018-12-12T04:27:06.083Z,100245.70
2018-12-12T04:31:51.291Z,100253.03
2018-12-12T04:36:36.761Z,100260.36
2018-12-12T04:41:21.648Z,100258.97
2018-12-12T04:46:06.857Z,100255.52
2018-12-12T04:50:51.168Z,100260.27
2018-12-12T04:55:36.385Z,100258.95
2018-12-12T05:00:21.888Z,100255.44
2018-12-12T05:05:06.156Z,100252.28
2018-12-12T05:09:51.545Z,100255.05
2018-12-12T05:14:37.178Z,100247.22
2018-12-12T05:19:22.680Z,100259.94
2018-12-12T05:24:06.949Z,100265.51
2018-12-12T05:28:52.831Z,100265.05
2018-12-12T05:33:38.598Z,100263.30
2018-12-12T05:38:22.807Z,100262.59
2018-12-12T05:43:09.049Z,100261.48
2018-12-12T05:47:54.165Z,100260.67
2018-12-12T05:52:40.416Z,100273.50
2018-12-12T05:57:24.917Z,100277.86
2018-12-12T06:02:10.881Z,100285.00
2018-12-12T06:06:55.484Z,100284.08
2018-12-12T06:11:42.407Z,100275.80
2018-12-12T06:16:26.484Z,100274.70
2018-12-12T06:21:12.849Z,100277.13
2018-12-12T06:25:58.590Z,100281.35
2018-12-12T06:30:47.367Z,100289.73
2018-12-12T06:35:31.550Z,100300.97
2018-12-12T06:40:21.148Z,100308.28
2018-12-12T06:45:06.757Z,100310.52
2018-12-12T06:49:52.166Z,100310.42
2018-12-12T06:54:37.299Z,100310.78
2018-12-12T06:59:22.500Z,100313.88
2018-12-12T07:04:07.784Z,100312.19
2018-12-12T07:08:53.947Z,100319.82
2018-12-12T07:13:39.136Z,100330.81
2018-12-12T07:18:24.346Z,100333.86
2018-12-12T07:23:09.645Z,100322.57
2018-12-12T07:27:55.516Z,100325.04
2018-12-12T07:32:41.891Z,100330.95
2018-12-12T07:37:26.431Z,100337.62
2018-12-12T07:42:13.099Z,100339.63
2018-12-12T07:46:57.744Z,100342.41
2018-12-12T07:51:43.059Z,100335.73
2018-12-12T07:56:28.358Z,100340.23
2018-12-12T08:01:13.436Z,100338.27
2018-12-12T08:05:58.350Z,100347.34
2018-12-12T08:10:44.248Z,100342.89
2018-12-12T08:15:29.365Z,100366.64
2018-12-12T08:20:13.404Z,100361.23
2018-12-12T08:24:58.842Z,100375.41
2018-12-12T08:29:44.361Z,100377.63
2018-12-12T08:34:29.611Z,100384.23
2018-12-12T08:39:14.017Z,100393.88
2018-12-12T08:43:59.326Z,100397.28
2018-12-12T08:48:45.668Z,100390.97
2018-12-12T08:53:30.922Z,100388.73
2018-12-12T08:58:16.480Z,100384.62
2018-12-12T09:03:02.820Z,100378.04
2018-12-12T09:07:46.966Z,100367.78
2018-12-12T09:12:32.306Z,100371.48
2018-12-12T09:17:17.595Z,100362.19
2018-12-12T09:22:03.106Z,100371.07
2018-12-12T09:26:48.318Z,100365.42
2018-12-12T09:31:36.960Z,100363.36
2018-12-12T09:36:22.136Z,100366.62
2018-12-12T09:41:08.639Z,100369.53
2018-12-12T09:45:53.962Z,100363.91
2018-12-12T09:50:39.342Z,100368.48
2018-12-12T09:55:24.602Z,100361.06
2018-12-12T10:00:11.452Z,100360.64
2018-12-12T10:04:56.691Z,100359.64
2018-12-12T10:09:40.939Z,100344.43
2018-12-12T10:14:25.082Z,100354.19
2018-12-12T10:19:10.396Z,100350.64
2018-12-12T10:23:55.669Z,100351.03
2018-12-12T10:28:41.485Z,100344.63
2018-12-12T10:33:26.601Z,100339.13
2018-12-12T10:38:11.807Z,100347.34
2018-12-12T10:42:57.628Z,100352.80
2018-12-12T10:47:43.035Z,100347.97
2018-12-12T10:52:27.279Z,100350.38
2018-12-12T10:57:11.549Z,100358.20
2018-12-12T11:02:02.745Z,100356.61
2018-12-12T11:06:47.102Z,100354.48
2018-12-12T11:11:31.494Z,100358.23
2018-12-12T11:16:17.115Z,100362.13
2018-12-12T11:21:02.393Z,100362.91
2018-12-12T11:25:47.662Z,100366.20
2018-12-12T11:30:33.063Z,100373.50
2018-12-12T11:35:18.248Z,100371.20
2018-12-12T11:40:04.959Z,100373.03
2018-12-12T11:44:49.591Z,100383.39
2018-12-12T11:49:35.756Z,100377.77
2018-12-12T11:54:20.001Z,100382.46
2018-12-12T11:59:06.413Z,100377.38
2018-12-12T12:03:56.773Z,100382.98
2018-12-12T12:08:38.080Z,100380.64
2018-12-12T12:13:22.837Z,100380.04
2018-12-12T12:18:08.929Z,100378.83
2018-12-12T12:22:53.473Z,100383.69
2018-12-12T12:27:39.071Z,100391.17
2018-12-12T12:32:23.949Z,100397.72
2018-12-12T12:37:09.083Z,100403.98
2018-12-12T12:41:54.301Z,100398.88
2018-12-12T12:46:39.577Z,100414.25
2018-12-12T12:51:24.693Z,100422.55
2018-12-12T12:56:09.763Z,100432.98
2018-12-12T13:00:55.906Z,100434.92
2018-12-12T13:05:40.153Z,100438.09
2018-12-12T13:10:25.472Z,100431.42
2018-12-12T13:15:11.143Z,100444.02
2018-12-12T13:19:57.243Z,100454.88
2018-12-12T13:24:42.445Z,100463.32
2018-12-12T13:29:26.701Z,100480.63
2018-12-12T13:34:16.224Z,100480.21
2018-12-12T13:39:02.174Z,100481.04
2018-12-12T13:43:47.366Z,100496.83
2018-12-12T13:48:32.689Z,100493.25
2018-12-12T13:53:18.416Z,100498.05
2018-12-12T13:58:04.789Z,100500.35
2018-12-12T14:02:50.019Z,100509.82
2018-12-12T14:07:35.189Z,100512.92
2018-12-12T14:12:19.901Z,100515.89
2018-12-12T14:17:05.628Z,100531.95
2018-12-12T14:21:50.618Z,100529.39
2018-12-12T14:26:35.883Z,100530.66
2018-12-12T14:31:21.102Z,100529.82
2018-12-12T14:36:06.184Z,100526.37
2018-12-12T14:40:52.844Z,100536.77
2018-12-12T14:45:38.081Z,100543.66
2018-12-12T14:50:22.164Z,100547.16
2018-12-12T14:55:07.438Z,100548.02
2018-12-12T14:59:52.806Z,100554.92
2018-12-12T15:04:38.090Z,100561.44
2018-12-12T15:09:22.326Z,100561.85
2018-12-12T15:14:06.573Z,100558.82
2018-12-12T15:18:51.865Z,100559.19
2018-12-12T15:23:37.020Z,100563.08
2018-12-12T15:28:22.238Z,100570.94
2018-12-12T15:33:06.389Z,100570.47
2018-12-12T15:37:51.600Z,100578.17
2018-12-12T15:42:36.764Z,100571.55
2018-12-12T15:47:20.998Z,100567.62
2018-12-12T15:52:06.311Z,100569.09
2018-12-12T15:56:50.583Z,100567.25
2018-12-12T16:01:34.904Z,100577.44
2018-12-12T16:06:20.163Z,100580.91
2018-12-12T16:11:08.334Z,100587.38
2018-12-12T16:15:54.068Z,100588.26
2018-12-12T16:20:39.937Z,100582.63
2018-12-12T16:25:25.682Z,100589.05
2018-12-12T16:30:11.589Z,100599.20
2018-12-12T16:34:55.966Z,100600.04
2018-12-12T16:39:42.023Z,100602.02
2018-12-12T16:44:27.253Z,100602.52
2018-12-12T16:49:13.673Z,100608.12
2018-12-12T16:53:58.767Z,100614.58
2018-12-12T16:58:45.329Z,100630.08
2018-12-12T17:03:30.897Z,100638.79
2018-12-12T17:08:15.147Z,100629.09
2018-12-12T17:13:00.487Z,100635.19
2018-12-12T17:17:49.651Z,100632.64
2018-12-12T17:22:33.952Z,100630.46
2018-12-12T17:27:19.211Z,100624.81
2018-12-12T17:32:04.537Z,100634.88
2018-12-12T17:36:49.066Z,100631.62
2018-12-12T17:41:34.817Z,100626.86
2018-12-12T17:46:19.247Z,100631.03
2018-12-12T17:51:03.677Z,100633.97
2018-12-12T17:55:49.636Z,100635.05
2018-12-12T18:00:34.990Z,100641.84
2018-12-12T18:05:19.289Z,100650.98
2018-12-12T18:10:08.433Z,100654.77
2018-12-12T18:14:53.735Z,100654.87
2018-12-12T18:19:40.195Z,100655.27
2018-12-12T18:24:27.817Z,100653.50
2018-12-12T18:29:12.941Z,100656.23
2018-12-12T18:33:57.357Z,100647.64
2018-12-12T18:38:45.946Z,100655.98
2018-12-12T18:43:30.279Z,100654.05
2018-12-12T18:48:16.594Z,100653.17
2018-12-12T18:53:03.248Z,100646.71
2018-12-12T18:57:48.501Z,100646.44
2018-12-12T19:02:33.754Z,100640.89
2018-12-12T19:07:18.097Z,100650.07
2018-12-12T19:12:04.146Z,100657.06
2018-12-12T19:16:50.467Z,100659.02
2018-12-12T19:21:36.386Z,100653.47
2018-12-12T19:26:20.686Z,100653.41
2018-12-12T19:31:06.898Z,100654.63
2018-12-12T19:35:52.173Z,100655.45
2018-12-12T19:40:36.459Z,100659.25
2018-12-12T19:45:23.648Z,100662.73
2018-12-12T19:50:10.507Z,100656.02
2018-12-12T19:54:55.845Z,100662.59
2018-12-12T19:59:42.347Z,100660.02
2018-12-12T20:04:27.212Z,100654.48
2018-12-12T20:09:13.018Z,100654.20
2018-12-12T20:13:59.492Z,100652.50
2018-12-12T20:18:44.892Z,100647.33
2018-12-12T20:23:29.252Z,100648.36
2018-12-12T20:28:17.755Z,100651.33
2018-12-12T20:33:03.061Z,100645.34
2018-12-12T20:37:48.473Z,100656.80
2018-12-12T20:42:32.593Z,100664.61
2018-12-12T20:47:17.883Z,100675.47
2018-12-12T20:52:02.633Z,100676.19
2018-12-12T20:56:53.554Z,100677.41
2018-12-12T21:01:37.910Z,100670.04
2018-12-12T21:06:23.139Z,100661.44
2018-12-12T21:11:07.971Z,100669.66
2018-12-12T21:15:53.518Z,100680.22
2018-12-12T21:20:39.005Z,100689.16
2018-12-12T21:25:36.685Z,100686.81
2018-12-12T21:30:22.171Z,100669.67
2018-12-12T21:35:07.589Z,100674.41
2018-12-12T21:39:54.385Z,100676.59
2018-12-12T21:44:38.648Z,100665.80
2018-12-12T21:49:25.615Z,100660.13
2018-12-12T21:54:09.834Z,100664.05
2018-12-12T21:58:56.166Z,100672.22
2018-12-12T22:03:41.349Z,100655.79
2018-12-12T22:08:26.786Z,100645.41
2018-12-12T22:13:11.886Z,100660.50
2018-12-12T22:17:57.527Z,100675.61
2018-12-12T22:22:44.469Z,100664.45
2018-12-12T22:27:33.442Z,100660.13
2018-12-12T22:32:18.517Z,100663.09
2018-12-12T22:37:03.923Z,100640.67
2018-12-12T22:41:49.071Z,100648.86
2018-12-12T22:46:33.349Z,100650.61
2018-12-12T22:51:18.574Z,100658.41
2018-12-12T22:56:03.835Z,100658.39
2018-12-12T23:00:54.469Z,100642.41
2018-12-12T23:05:38.768Z,100657.02
2018-12-12T23:10:24.142Z,100666.11
2018-12-12T23:15:09.198Z,100660.11
2018-12-12T23:19:54.421Z,100673.05
2018-12-12T23:24:38.613Z,100657.94
2018-12-12T23:29:27.139Z,100646.67
2018-12-12T23:34:12.126Z,100660.53
2018-12-12T23:38:57.219Z,100659.20
2018-12-12T23:43:42.466Z,100659.62
2018-12-12T23:48:27.631Z,100669.58
2018-12-12T23:53:12.781Z,100661.88
2018-12-12T23:57:57.008Z,100664.85
